createdAt,value
2018-09-11T00:00:45.040Z,3.57
2018-09-11T00:03:13.450Z,2.33
2018-09-11T00:05:41.626Z,2.30
2018-09-11T00:08:09.722Z,3.43
2018-09-11T00:10:37.849Z,3.83
2018-09-11T00:13:06.064Z,4.10
2018-09-11T00:15:34.224Z,2.67
2018-09-11T00:18:02.413Z,3.10
2018-09-11T00:20:30.540Z,5.00
2018-09-11T00:22:58.652Z,3.40
2018-09-11T00:25:26.779Z,4.10
2018-09-11T00:27:54.900Z,2.60
2018-09-11T00:30:23.030Z,3.60
2018-09-11T00:32:51.148Z,2.27
2018-09-11T00:35:19.270Z,4.10
2018-09-11T00:37:47.416Z,2.30
2018-09-11T00:40:15.716Z,2.17
2018-09-11T00:42:43.895Z,4.80
2018-09-11T00:45:12.024Z,3.17
2018-09-11T00:47:40.119Z,3.93
2018-09-11T00:50:08.300Z,3.93
2018-09-11T00:52:36.370Z,4.63
2018-09-11T00:55:04.615Z,4.10
2018-09-11T00:57:32.695Z,3.33
2018-09-11T01:00:00.817Z,5.97
2018-09-11T01:02:28.909Z,3.60
2018-09-11T01:04:57.012Z,3.70
2018-09-11T01:07:25.130Z,3.17
2018-09-11T01:09:53.267Z,4.10
2018-09-11T01:12:21.415Z,8.33
2018-09-11T01:14:49.615Z,4.03
2018-09-11T01:17:17.692Z,4.57
2018-09-11T01:19:45.863Z,4.50
2018-09-11T01:22:14.024Z,6.13
2018-09-11T01:24:42.140Z,3.40
2018-09-11T01:27:10.254Z,5.97
2018-09-11T01:29:38.356Z,4.67
2018-09-11T01:32:06.540Z,3.50
2018-09-11T01:34:41.255Z,4.37
2018-09-11T01:37:09.421Z,4.13
2018-09-11T01:39:37.567Z,4.50
2018-09-11T01:42:05.749Z,3.20
2018-09-11T01:44:33.843Z,4.43
2018-09-11T01:47:01.984Z,4.20
2018-09-11T01:49:30.084Z,4.40
2018-09-11T01:51:58.257Z,4.30
2018-09-11T01:54:26.378Z,4.93
2018-09-11T01:56:54.504Z,3.90
2018-09-11T01:59:23.503Z,4.03
2018-09-11T02:01:51.595Z,5.60
2018-09-11T02:04:19.744Z,4.60
2018-09-11T02:06:47.900Z,4.17
2018-09-11T02:09:15.997Z,4.33
2018-09-11T02:11:44.114Z,4.60
2018-09-11T02:14:12.234Z,4.47
2018-09-11T02:16:40.375Z,5.90
2018-09-11T02:19:08.451Z,5.13
2018-09-11T02:21:36.576Z,4.30
2018-09-11T02:24:04.682Z,3.53
2018-09-11T02:26:32.856Z,4.17
2018-09-11T02:29:00.990Z,5.30
2018-09-11T02:31:29.090Z,3.77
2018-09-11T02:33:57.205Z,4.80
2018-09-11T02:36:25.312Z,2.50
2018-09-11T02:38:53.451Z,3.60
2018-09-11T02:41:21.614Z,3.77
2018-09-11T02:43:49.763Z,5.30
2018-09-11T02:46:17.886Z,3.53
2018-09-11T02:48:46.061Z,3.67
2018-09-11T02:51:14.176Z,5.07
2018-09-11T02:53:42.303Z,2.90
2018-09-11T02:56:10.430Z,3.03
2018-09-11T02:58:38.550Z,5.87
2018-09-11T03:01:06.683Z,4.03
2018-09-11T03:03:34.825Z,3.63
2018-09-11T03:06:03.155Z,5.30
2018-09-11T03:08:31.276Z,4.43
2018-09-11T03:10:59.371Z,3.67
2018-09-11T03:13:27.500Z,5.50
2018-09-11T03:15:55.589Z,2.93
2018-09-11T03:18:23.716Z,3.67
2018-09-11T03:20:51.812Z,3.60
2018-09-11T03:23:19.912Z,3.57
2018-09-11T03:25:48.060Z,2.73
2018-09-11T03:28:16.217Z,5.40
2018-09-11T03:30:44.334Z,6.00
2018-09-11T03:33:12.504Z,7.70
2018-09-11T03:35:40.630Z,6.73
2018-09-11T03:38:08.772Z,3.67
2018-09-11T03:40:36.927Z,4.27
2018-09-11T03:43:05.076Z,2.70
2018-09-11T03:45:33.212Z,6.07
2018-09-11T03:48:01.331Z,4.80
2018-09-11T03:50:29.466Z,3.30
2018-09-11T03:52:57.615Z,2.80
2018-09-11T03:55:25.724Z,4.40
2018-09-11T03:57:53.871Z,5.90
2018-09-11T04:00:21.973Z,5.97
2018-09-11T04:02:50.109Z,2.73
2018-09-11T04:05:18.253Z,5.80
2018-09-11T04:07:46.358Z,4.63
2018-09-11T04:10:14.456Z,3.90
2018-09-11T04:12:42.555Z,4.70
2018-09-11T04:15:10.659Z,3.90
2018-09-11T04:17:41.102Z,4.47
2018-09-11T04:20:09.236Z,5.73
2018-09-11T04:22:38.396Z,3.40
2018-09-11T04:25:06.530Z,3.23
2018-09-11T04:27:34.868Z,4.80
2018-09-11T04:30:02.955Z,3.43
2018-09-11T04:32:31.073Z,2.77
2018-09-11T04:34:59.208Z,5.40
2018-09-11T04:37:27.368Z,6.53
2018-09-11T04:39:55.459Z,5.20
2018-09-11T04:42:23.634Z,3.30
2018-09-11T04:44:51.748Z,3.50
2018-09-11T04:47:19.872Z,4.20
2018-09-11T04:49:47.995Z,5.67
2018-09-11T04:52:16.111Z,3.10
2018-09-11T04:54:44.391Z,3.77
2018-09-11T04:57:12.512Z,6.63
2018-09-11T04:59:40.618Z,4.77
2018-09-11T05:02:08.728Z,3.73
2018-09-11T05:04:36.875Z,7.37
2018-09-11T05:07:05.168Z,4.80
2018-09-11T05:09:33.277Z,5.70
2018-09-11T05:12:01.438Z,7.13
2018-09-11T05:14:29.496Z,5.90
2018-09-11T05:16:57.635Z,7.63
2018-09-11T05:19:25.748Z,4.90
2018-09-11T05:21:53.881Z,3.70
2018-09-11T05:24:21.974Z,6.70
2018-09-11T05:26:50.106Z,6.63
2018-09-11T05:29:18.272Z,6.10
2018-09-11T05:31:46.348Z,7.90
2018-09-11T05:34:14.467Z,2.93
2018-09-11T05:36:42.556Z,5.43
2018-09-11T05:39:10.968Z,8.80
2018-09-11T05:41:38.987Z,5.80
2018-09-11T05:44:07.329Z,5.90
2018-09-11T05:46:35.579Z,3.70
2018-09-11T05:49:03.970Z,4.60
2018-09-11T05:51:32.108Z,5.10
2018-09-11T05:54:00.248Z,5.80
2018-09-11T05:56:28.363Z,2.97
2018-09-11T05:58:56.470Z,4.07
2018-09-11T06:01:24.568Z,3.33
2018-09-11T06:03:52.700Z,4.40
2018-09-11T06:06:20.798Z,7.20
2018-09-11T06:08:48.968Z,3.77
2018-09-11T06:11:17.068Z,4.50
2018-09-11T06:13:45.203Z,5.07
2018-09-11T06:16:13.346Z,5.23
2018-09-11T06:18:41.533Z,5.20
2018-09-11T06:21:09.696Z,4.80
2018-09-11T06:23:37.823Z,5.03
2018-09-11T06:26:05.929Z,3.27
2018-09-11T06:28:34.084Z,4.50
2018-09-11T06:31:02.183Z,5.03
2018-09-11T06:33:30.336Z,5.70
2018-09-11T06:36:00.508Z,6.30
2018-09-11T06:38:28.799Z,5.87
2018-09-11T06:40:56.921Z,4.40
2018-09-11T06:43:25.356Z,4.60
2018-09-11T06:45:53.540Z,6.50
2018-09-11T06:48:21.734Z,7.23
2018-09-11T06:50:49.891Z,4.30
2018-09-11T06:53:18.028Z,4.43
2018-09-11T06:55:46.260Z,6.20
2018-09-11T06:58:14.398Z,6.23
2018-09-11T07:00:42.678Z,6.23
2018-09-11T07:03:10.731Z,5.33
2018-09-11T07:05:38.854Z,3.40
2018-09-11T07:08:07.028Z,8.43
2018-09-11T07:10:35.158Z,9.07
2018-09-11T07:13:03.271Z,4.87
2018-09-11T07:15:31.411Z,6.00
2018-09-11T07:17:59.626Z,5.87
2018-09-11T07:20:27.827Z,7.60
2018-09-11T07:22:55.891Z,3.80
2018-09-11T07:25:24.047Z,7.53
2018-09-11T07:27:52.420Z,7.57
2018-09-11T07:30:20.573Z,7.03
2018-09-11T07:32:48.740Z,7.07
2018-09-11T07:35:17.135Z,7.50
2018-09-11T07:37:45.459Z,5.63
2018-09-11T07:40:13.583Z,5.70
2018-09-11T07:42:41.722Z,4.93
2018-09-11T07:45:09.831Z,4.93
2018-09-11T07:47:37.927Z,7.33
2018-09-11T07:50:06.357Z,7.30
2018-09-11T07:52:34.493Z,12.90
2018-09-11T07:55:02.620Z,6.20
2018-09-11T07:57:30.824Z,10.07
2018-09-11T07:59:59.046Z,3.37
2018-09-11T08:02:27.175Z,5.50
2018-09-11T08:04:55.390Z,3.07
2018-09-11T08:07:23.516Z,5.50
2018-09-11T08:09:51.634Z,7.30
2018-09-11T08:12:19.764Z,4.67
2018-09-11T08:14:47.884Z,3.57
2018-09-11T08:17:16.054Z,8.27
2018-09-11T08:19:44.201Z,5.87
2018-09-11T08:22:12.319Z,4.60
2018-09-11T08:24:40.452Z,4.30
2018-09-11T08:27:08.589Z,5.70
2018-09-11T08:29:36.728Z,6.70
2018-09-11T08:32:04.860Z,7.87
2018-09-11T08:34:33.055Z,9.53
2018-09-11T08:37:01.195Z,7.30
2018-09-11T08:39:29.287Z,6.77
2018-09-11T08:41:57.413Z,5.73
2018-09-11T08:44:25.517Z,3.40
2018-09-11T08:46:53.643Z,5.90
2018-09-11T08:49:21.773Z,6.00
2018-09-11T08:51:50.123Z,4.17
2018-09-11T08:54:18.268Z,3.33
2018-09-11T08:56:46.400Z,5.23
2018-09-11T08:59:14.528Z,3.13
2018-09-11T09:01:42.639Z,4.40
2018-09-11T09:04:10.763Z,8.03
2018-09-11T09:06:38.908Z,8.03
2018-09-11T09:09:08.783Z,3.70
2018-09-11T09:11:37.144Z,5.10
2018-09-11T09:14:05.337Z,5.03
2018-09-11T09:16:33.477Z,3.50
2018-09-11T09:19:01.607Z,2.80
2018-09-11T09:21:29.717Z,4.10
2018-09-11T09:23:57.852Z,5.70
2018-09-11T09:26:25.993Z,3.63
2018-09-11T09:28:54.114Z,2.83
2018-09-11T09:31:22.353Z,4.53
2018-09-11T09:33:50.467Z,3.57
2018-09-11T09:36:18.538Z,3.97
2018-09-11T09:38:46.755Z,4.53
2018-09-11T09:41:14.876Z,4.37
2018-09-11T09:43:42.996Z,3.17
2018-09-11T09:46:11.116Z,3.17
2018-09-11T09:48:39.226Z,3.90
2018-09-11T09:51:07.336Z,3.30
2018-09-11T09:53:35.428Z,4.20
2018-09-11T09:56:03.520Z,3.03
2018-09-11T09:58:31.646Z,2.47
2018-09-11T10:01:05.065Z,3.33
2018-09-11T10:03:33.181Z,2.90
2018-09-11T10:06:01.312Z,3.53
2018-09-11T10:08:29.431Z,4.10
2018-09-11T10:10:57.570Z,2.97
2018-09-11T10:13:25.696Z,4.53
2018-09-11T10:15:53.804Z,4.13
2018-09-11T10:18:21.926Z,2.20
2018-09-11T10:20:50.047Z,4.50
2018-09-11T10:23:18.169Z,9.00
2018-09-11T10:25:46.304Z,3.10
2018-09-11T10:28:14.416Z,2.47
2018-09-11T10:30:42.531Z,2.67
2018-09-11T10:33:10.622Z,2.83
2018-09-11T10:35:38.752Z,3.80
2018-09-11T10:38:07.024Z,4.20
2018-09-11T10:40:35.145Z,3.50
2018-09-11T10:43:03.257Z,4.70
2018-09-11T10:45:31.369Z,4.80
2018-09-11T10:47:59.523Z,6.07
2018-09-11T10:50:27.687Z,5.23
2018-09-11T10:52:55.814Z,4.07
2018-09-11T10:55:23.960Z,5.10
2018-09-11T10:57:52.048Z,7.00
2018-09-11T11:00:20.195Z,4.60
2018-09-11T11:02:48.355Z,4.83
2018-09-11T11:05:16.464Z,12.97
2018-09-11T11:07:44.588Z,5.60
2018-09-11T11:10:12.739Z,7.47
2018-09-11T11:12:40.844Z,6.23
2018-09-11T11:15:08.936Z,7.23
2018-09-11T11:17:37.063Z,6.87
2018-09-11T11:20:05.254Z,8.70
2018-09-11T11:22:33.401Z,9.90
2018-09-11T11:25:01.504Z,7.93
2018-09-11T11:27:29.631Z,8.10
2018-09-11T11:29:57.760Z,8.60
2018-09-11T11:32:25.859Z,11.30
2018-09-11T11:34:54.144Z,10.93
2018-09-11T11:37:22.375Z,11.20
2018-09-11T11:39:50.417Z,11.20
2018-09-11T11:42:18.607Z,14.87
2018-09-11T11:44:46.648Z,11.73
2018-09-11T11:47:14.724Z,13.20
2018-09-11T11:49:42.852Z,13.13
2018-09-11T11:52:11.007Z,13.97
2018-09-11T11:54:39.164Z,15.77
2018-09-11T11:57:07.236Z,14.40
2018-09-11T11:59:35.334Z,19.53
2018-09-11T12:02:03.539Z,15.93
2018-09-11T12:04:31.584Z,16.13
2018-09-11T12:06:59.699Z,17.83
2018-09-11T12:09:27.795Z,18.30
2018-09-11T12:11:55.944Z,21.23
2018-09-11T12:14:24.066Z,21.90
2018-09-11T12:16:52.263Z,22.40
2018-09-11T12:19:20.319Z,20.17
2018-09-11T12:21:48.412Z,24.13
2018-09-11T12:24:16.508Z,25.10
2018-09-11T12:26:44.685Z,24.70
2018-09-11T12:29:12.758Z,25.20
2018-09-11T12:31:40.891Z,26.20
2018-09-11T12:34:09.079Z,29.13
2018-09-11T12:36:37.182Z,29.47
2018-09-11T12:39:07.168Z,29.17
2018-09-11T12:41:35.266Z,33.17
2018-09-11T12:44:03.439Z,31.50
2018-09-11T12:46:31.981Z,37.03
2018-09-11T12:48:59.788Z,36.10
2018-09-11T12:51:27.972Z,38.03
2018-09-11T12:53:56.055Z,38.80
2018-09-11T12:56:24.207Z,40.70
2018-09-11T12:58:52.317Z,41.33
2018-09-11T13:01:20.437Z,50.53
2018-09-11T13:03:48.585Z,46.30
2018-09-11T13:06:16.752Z,49.80
2018-09-11T13:08:44.852Z,52.80
2018-09-11T13:11:12.974Z,51.53
2018-09-11T13:13:41.215Z,54.67
2018-09-11T13:16:09.636Z,52.90
2018-09-11T13:18:37.730Z,60.27
2018-09-11T13:21:05.916Z,63.33
2018-09-11T13:23:34.000Z,59.40
2018-09-11T13:26:02.127Z,59.10
2018-09-11T13:28:30.294Z,53.73
2018-09-11T13:30:58.425Z,52.27
2018-09-11T13:33:26.576Z,58.73
2018-09-11T13:35:54.681Z,58.33
2018-09-11T13:38:22.828Z,55.53
2018-09-11T13:40:50.937Z,53.50
2018-09-11T13:43:19.072Z,53.80
2018-09-11T13:45:47.180Z,54.23
2018-09-11T13:48:15.751Z,52.83
2018-09-11T13:50:43.887Z,53.13
2018-09-11T13:53:12.023Z,54.17
2018-09-11T13:55:40.136Z,52.70
2018-09-11T13:58:08.255Z,60.00
2018-09-11T14:00:36.352Z,60.60
2018-09-11T14:03:04.503Z,56.93
2018-09-11T14:05:32.724Z,53.10
2018-09-11T14:08:00.931Z,52.03
2018-09-11T14:10:29.040Z,51.10
2018-09-11T14:12:57.183Z,54.70
2018-09-11T14:15:25.297Z,51.00
2018-09-11T14:17:53.416Z,54.13
2018-09-11T14:20:21.532Z,51.60
2018-09-11T14:22:49.957Z,51.23
2018-09-11T14:25:18.056Z,47.30
2018-09-11T14:27:46.212Z,46.80
2018-09-11T14:30:14.378Z,44.40
2018-09-11T14:32:42.518Z,40.50
2018-09-11T14:35:10.628Z,46.87
2018-09-11T14:37:38.742Z,45.60
2018-09-11T14:40:06.916Z,42.00
2018-09-11T14:42:35.113Z,44.50
2018-09-11T14:45:03.326Z,38.13
2018-09-11T14:47:36.824Z,36.73
2018-09-11T14:50:05.032Z,30.20
2018-09-11T14:52:33.232Z,35.23
2018-09-11T14:55:01.351Z,27.73
2018-09-11T14:57:29.537Z,27.87
2018-09-11T14:59:57.593Z,29.83
2018-09-11T15:02:25.705Z,28.87
2018-09-11T15:04:53.836Z,29.57
2018-09-11T15:07:21.953Z,31.77
2018-09-11T15:09:50.088Z,25.43
2018-09-11T15:12:18.221Z,24.57
2018-09-11T15:14:46.400Z,23.73
2018-09-11T15:17:14.856Z,20.70
2018-09-11T15:19:43.037Z,20.93
2018-09-11T15:22:12.388Z,19.97
2018-09-11T15:24:40.489Z,20.07
2018-09-11T15:27:08.622Z,16.33
2018-09-11T15:29:36.943Z,16.03
2018-09-11T15:32:05.084Z,15.47
2018-09-11T15:34:33.313Z,16.73
2018-09-11T15:37:01.476Z,12.70
2018-09-11T15:39:29.856Z,17.80
2018-09-11T15:41:58.295Z,13.33
2018-09-11T15:44:26.952Z,15.37
2018-09-11T15:46:55.371Z,17.00
2018-09-11T15:49:23.574Z,14.60
2018-09-11T15:51:51.785Z,11.87
2018-09-11T15:54:19.891Z,10.03
2018-09-11T15:56:48.067Z,11.70
2018-09-11T15:59:16.192Z,12.50
2018-09-11T16:01:44.309Z,14.33
2018-09-11T16:04:12.431Z,9.07
2018-09-11T16:06:40.522Z,10.57
2018-09-11T16:09:10.424Z,10.23
2018-09-11T16:11:38.595Z,11.63
2018-09-11T16:14:06.910Z,8.00
2018-09-11T16:16:35.358Z,8.63
2018-09-11T16:19:03.525Z,9.70
2018-09-11T16:21:31.689Z,9.47
2018-09-11T16:24:00.204Z,8.87
2018-09-11T16:26:28.344Z,11.60
2018-09-11T16:28:56.468Z,9.40
2018-09-11T16:31:24.592Z,7.90
2018-09-11T16:33:52.773Z,9.50
2018-09-11T16:36:20.941Z,8.17
2018-09-11T16:38:49.175Z,7.17
2018-09-11T16:41:17.292Z,7.20
2018-09-11T16:43:45.407Z,6.53
2018-09-11T16:46:13.549Z,8.50
2018-09-11T16:48:41.688Z,6.90
2018-09-11T16:51:09.812Z,6.53
2018-09-11T16:53:38.026Z,6.73
2018-09-11T16:56:06.131Z,5.90
2018-09-11T16:58:34.199Z,8.57
2018-09-11T17:01:02.403Z,6.60
2018-09-11T17:03:30.550Z,6.53
2018-09-11T17:05:58.691Z,6.07
2018-09-11T17:08:26.792Z,5.63
2018-09-11T17:10:54.973Z,5.80
2018-09-11T17:13:23.104Z,5.80
2018-09-11T17:15:51.368Z,5.40
2018-09-11T17:18:19.467Z,5.07
2018-09-11T17:20:47.665Z,5.30
2018-09-11T17:23:15.792Z,7.73
2018-09-11T17:25:44.013Z,5.97
2018-09-11T17:28:12.365Z,5.10
2018-09-11T17:30:40.463Z,7.37
2018-09-11T17:33:08.558Z,8.03
2018-09-11T17:35:36.664Z,6.03
2018-09-11T17:38:04.794Z,5.40
2018-09-11T17:40:32.911Z,6.53
2018-09-11T17:43:01.145Z,5.33
2018-09-11T17:45:29.330Z,5.03
2018-09-11T17:47:57.432Z,6.30
2018-09-11T17:50:25.528Z,8.50
2018-09-11T17:52:53.668Z,5.13
2018-09-11T17:55:21.871Z,5.40
2018-09-11T17:57:50.138Z,4.70
2018-09-11T18:00:18.249Z,4.27
2018-09-11T18:02:46.439Z,4.93
2018-09-11T18:05:15.169Z,10.37
2018-09-11T18:07:43.260Z,13.03
2018-09-11T18:10:11.356Z,14.87
2018-09-11T18:12:39.478Z,65.13
2018-09-11T18:15:07.575Z,13.10
2018-09-11T18:17:35.676Z,14.17
2018-09-11T18:20:04.031Z,15.20
2018-09-11T18:22:32.104Z,22.90
2018-09-11T18:25:00.197Z,14.20
2018-09-11T18:27:28.373Z,13.90
2018-09-11T18:29:56.762Z,10.10
2018-09-11T18:32:24.972Z,15.73
2018-09-11T18:34:53.263Z,15.20
2018-09-11T18:37:21.521Z,10.30
2018-09-11T18:39:49.583Z,14.73
2018-09-11T18:42:17.729Z,11.50
2018-09-11T18:44:45.874Z,14.43
2018-09-11T18:47:13.977Z,12.67
2018-09-11T18:49:42.099Z,12.90
2018-09-11T18:52:10.251Z,10.80
2018-09-11T18:54:38.383Z,13.57
2018-09-11T18:57:06.539Z,13.77
2018-09-11T18:59:34.705Z,7.23
2018-09-11T19:02:02.840Z,14.23
2018-09-11T19:04:30.941Z,16.03
2018-09-11T19:06:59.068Z,18.17
2018-09-11T19:09:27.260Z,16.43
2018-09-11T19:11:55.395Z,20.70
2018-09-11T19:14:23.568Z,11.37
2018-09-11T19:16:51.682Z,17.77
2018-09-11T19:19:19.849Z,14.13
2018-09-11T19:21:47.990Z,17.77
2018-09-11T19:24:16.163Z,15.43
2018-09-11T19:26:44.342Z,15.50
2018-09-11T19:29:12.427Z,11.97
2018-09-11T19:31:40.613Z,19.90
2018-09-11T19:34:08.793Z,22.17
2018-09-11T19:36:36.926Z,22.27
2018-09-11T19:39:06.537Z,11.53
2018-09-11T19:41:34.683Z,15.13
2018-09-11T19:44:02.904Z,11.80
2018-09-11T19:46:31.046Z,18.30
2018-09-11T19:48:59.251Z,19.90
2018-09-11T19:51:27.398Z,14.57
2018-09-11T19:53:55.508Z,15.90
2018-09-11T19:56:23.621Z,23.13
2018-09-11T19:58:51.770Z,15.30
2018-09-11T20:01:19.812Z,20.37
2018-09-11T20:03:47.962Z,13.97
2018-09-11T20:06:16.172Z,18.07
2018-09-11T20:08:44.289Z,11.47
2018-09-11T20:11:12.524Z,12.70
2018-09-11T20:13:40.663Z,13.17
2018-09-11T20:16:08.913Z,12.83
2018-09-11T20:18:37.092Z,8.70
2018-09-11T20:21:05.179Z,14.00
2018-09-11T20:23:33.287Z,7.57
2018-09-11T20:26:01.383Z,9.00
2018-09-11T20:28:29.628Z,11.10
2018-09-11T20:30:57.763Z,9.30
2018-09-11T20:33:25.880Z,5.90
2018-09-11T20:35:54.002Z,8.17
2018-09-11T20:38:22.194Z,14.03
2018-09-11T20:40:50.300Z,7.93
2018-09-11T20:43:18.446Z,11.57
2018-09-11T20:45:46.542Z,8.00
2018-09-11T20:48:14.700Z,10.87
2018-09-11T20:50:42.789Z,7.67
2018-09-11T20:53:10.911Z,11.17
2018-09-11T20:55:39.008Z,9.40
2018-09-11T20:58:07.199Z,9.40
2018-09-11T21:00:35.283Z,9.93
2018-09-11T21:03:03.390Z,6.43
2018-09-11T21:05:31.475Z,5.27
2018-09-11T21:07:59.612Z,8.53
2018-09-11T21:10:27.724Z,4.03
2018-09-11T21:12:55.880Z,8.83
2018-09-11T21:15:23.966Z,6.03
2018-09-11T21:17:52.104Z,12.60
2018-09-11T21:20:20.272Z,5.33
2018-09-11T21:22:48.382Z,7.27
2018-09-11T21:25:16.507Z,4.00
2018-09-11T21:27:44.603Z,6.40
2018-09-11T21:30:13.507Z,4.93
2018-09-11T21:32:41.601Z,5.40
2018-09-11T21:35:09.693Z,7.87
2018-09-11T21:37:37.807Z,6.87
2018-09-11T21:40:12.480Z,9.63
2018-09-11T21:42:40.569Z,6.73
2018-09-11T21:45:08.815Z,5.30
2018-09-11T21:47:36.920Z,6.47
2018-09-11T21:50:05.120Z,5.90
2018-09-11T21:52:33.206Z,6.03
2018-09-11T21:55:01.315Z,5.30
2018-09-11T21:57:29.416Z,6.50
2018-09-11T21:59:57.571Z,5.33
2018-09-11T22:02:25.628Z,7.90
2018-09-11T22:04:53.724Z,8.10
2018-09-11T22:07:22.096Z,5.83
2018-09-11T22:09:50.220Z,5.20
2018-09-11T22:12:18.309Z,4.73
2018-09-11T22:14:46.412Z,6.63
2018-09-11T22:17:14.508Z,3.40
2018-09-11T22:19:42.603Z,7.20
2018-09-11T22:22:10.692Z,3.83
2018-09-11T22:24:38.827Z,6.23
2018-09-11T22:27:06.912Z,3.60
2018-09-11T22:29:35.082Z,5.03
2018-09-11T22:32:03.171Z,6.80
2018-09-11T22:34:31.279Z,5.70
2018-09-11T22:36:59.449Z,7.50
2018-09-11T22:39:27.507Z,6.03
2018-09-11T22:41:55.649Z,5.07
2018-09-11T22:44:23.779Z,7.10
2018-09-11T22:46:51.909Z,4.03
2018-09-11T22:49:20.024Z,5.80
2018-09-11T22:51:48.107Z,6.03
2018-09-11T22:54:16.207Z,5.57
2018-09-11T22:56:44.296Z,3.03
2018-09-11T22:59:12.407Z,6.17
2018-09-11T23:01:40.496Z,6.33
2018-09-11T23:04:08.635Z,4.63
2018-09-11T23:06:36.782Z,4.80
2018-09-11T23:09:07.227Z,3.20
2018-09-11T23:11:35.330Z,4.23
2018-09-11T23:14:03.410Z,6.23
2018-09-11T23:16:31.524Z,5.73
2018-09-11T23:18:59.611Z,7.90
2018-09-11T23:21:27.715Z,5.10
2018-09-11T23:23:55.861Z,5.33
2018-09-11T23:26:23.968Z,6.53
2018-09-11T23:28:52.168Z,5.23
2018-09-11T23:31:20.264Z,4.87
2018-09-11T23:33:48.372Z,3.50
2018-09-11T23:36:16.478Z,5.23
2018-09-11T23:38:44.588Z,5.77
2018-09-11T23:41:12.708Z,3.00
2018-09-11T23:43:40.827Z,3.07
2018-09-11T23:46:08.934Z,7.13
2018-09-11T23:48:37.051Z,5.27
2018-09-11T23:51:05.173Z,2.70
2018-09-11T23:53:33.262Z,3.30
2018-09-11T23:56:01.377Z,4.30
2018-09-11T23:58:29.609Z,3.30
